createdAt,value
2023-01-13T00:00:51.708Z,0.90
2023-01-13T00:03:18.385Z,1.03
2023-01-13T00:05:45.063Z,1.30
2023-01-13T00:08:11.812Z,0.90
2023-01-13T00:10:38.547Z,0.90
2023-01-13T00:13:05.967Z,1.17
2023-01-13T00:15:33.605Z,1.20
2023-01-13T00:18:00.311Z,0.70
2023-01-13T00:20:27.137Z,1.27
2023-01-13T00:22:53.877Z,1.20
2023-01-13T00:25:20.534Z,1.23
2023-01-13T00:27:47.189Z,1.10
2023-01-13T00:30:14.203Z,1.20
2023-01-13T00:32:40.925Z,1.20
2023-01-13T00:35:08.043Z,1.20
2023-01-13T00:37:38.792Z,1.20
2023-01-13T00:40:06.153Z,1.03
2023-01-13T00:42:51.448Z,1.33
2023-01-13T00:45:18.037Z,0.97
2023-01-13T00:47:44.727Z,1.60
2023-01-13T00:50:11.420Z,1.37
2023-01-13T00:52:38.001Z,1.27
2023-01-13T00:55:05.034Z,1.27
2023-01-13T00:57:31.734Z,1.30
2023-01-13T00:59:58.477Z,1.30
2023-01-13T01:02:25.363Z,0.90
2023-01-13T01:04:52.353Z,0.90
2023-01-13T01:07:19.084Z,1.07
2023-01-13T01:09:45.745Z,1.00
2023-01-13T01:12:12.414Z,1.23
2023-01-13T01:14:39.275Z,1.00
2023-01-13T01:17:05.991Z,1.20
2023-01-13T01:19:32.701Z,1.33
2023-01-13T01:21:59.367Z,0.90
2023-01-13T01:24:25.989Z,0.93
2023-01-13T01:26:52.677Z,1.03
2023-01-13T01:29:19.343Z,1.00
2023-01-13T01:31:46.154Z,0.93
2023-01-13T01:34:13.043Z,1.13
2023-01-13T01:36:39.939Z,1.10
2023-01-13T01:39:06.985Z,0.90
2023-01-13T01:41:36.422Z,0.80
2023-01-13T01:44:51.395Z,1.27
2023-01-13T01:47:18.764Z,1.10
2023-01-13T01:49:46.391Z,0.83
2023-01-13T01:52:40.516Z,1.07
2023-01-13T01:55:14.427Z,0.83
2023-01-13T01:58:00.674Z,0.87
2023-01-13T02:00:29.666Z,0.70
2023-01-13T02:02:57.323Z,0.80
2023-01-13T02:05:24.073Z,0.80
2023-01-13T02:07:53.895Z,0.80
2023-01-13T02:10:23.991Z,0.73
2023-01-13T02:12:52.398Z,1.00
2023-01-13T02:15:25.958Z,0.67
2023-01-13T02:18:03.441Z,1.00
2023-01-13T02:20:52.573Z,0.60
2023-01-13T02:24:16.490Z,0.70
2023-01-13T02:27:26.828Z,1.20
2023-01-13T02:30:18.398Z,0.80
2023-01-13T02:33:00.192Z,0.90
2023-01-13T02:35:32.617Z,1.00
2023-01-13T02:38:01.525Z,0.97
2023-01-13T02:40:45.843Z,1.00
2023-01-13T02:43:39.944Z,0.80
2023-01-13T02:46:15.502Z,0.50
2023-01-13T02:48:45.780Z,1.03
2023-01-13T02:51:17.502Z,0.83
2023-01-13T02:53:51.239Z,0.70
2023-01-13T02:56:19.596Z,0.70
2023-01-13T02:58:48.517Z,0.70
2023-01-13T03:01:15.286Z,0.87
2023-01-13T03:03:42.141Z,0.90
2023-01-13T03:06:29.919Z,1.00
2023-01-13T03:09:08.735Z,0.70
2023-01-13T03:11:46.267Z,0.60
2023-01-13T03:14:40.908Z,0.67
2023-01-13T03:17:16.371Z,0.70
2023-01-13T03:19:49.195Z,0.77
2023-01-13T03:22:42.448Z,1.10
2023-01-13T03:25:18.497Z,0.80
2023-01-13T03:27:51.356Z,0.90
2023-01-13T03:30:24.644Z,0.70
2023-01-13T03:33:00.000Z,0.90
2023-01-13T03:35:30.850Z,1.03
2023-01-13T03:38:09.535Z,0.80
2023-01-13T03:40:49.944Z,1.10
2023-01-13T03:43:41.557Z,0.90
2023-01-13T03:46:14.895Z,0.70
2023-01-13T03:48:45.844Z,0.80
2023-01-13T03:51:18.380Z,1.10
2023-01-13T03:53:54.801Z,1.10
2023-01-13T03:56:27.784Z,0.93
2023-01-13T03:58:54.867Z,0.70
2023-01-13T04:01:27.038Z,0.77
2023-01-13T04:04:05.467Z,0.80
2023-01-13T04:06:50.623Z,0.70
2023-01-13T04:09:33.431Z,0.80
2023-01-13T04:12:17.285Z,0.50
2023-01-13T04:14:45.332Z,0.53
2023-01-13T04:17:12.524Z,0.60
2023-01-13T04:19:39.214Z,0.60
2023-01-13T04:22:05.924Z,0.60
2023-01-13T04:24:32.647Z,0.90
2023-01-13T04:26:59.484Z,0.67
2023-01-13T04:29:26.235Z,0.70
2023-01-13T04:31:52.915Z,0.60
2023-01-13T04:34:19.894Z,0.60
2023-01-13T04:36:46.679Z,0.70
2023-01-13T04:39:13.423Z,0.93
2023-01-13T04:41:58.375Z,0.70
2023-01-13T04:44:26.259Z,0.87
2023-01-13T04:46:53.388Z,0.70
2023-01-13T04:49:20.297Z,0.50
2023-01-13T04:51:47.022Z,0.70
2023-01-13T04:54:14.030Z,1.00
2023-01-13T04:56:40.696Z,1.20
2023-01-13T04:59:07.493Z,0.77
2023-01-13T05:01:34.302Z,1.07
2023-01-13T05:04:01.131Z,1.93
2023-01-13T05:06:27.786Z,2.00
2023-01-13T05:08:54.463Z,0.93
2023-01-13T05:11:39.842Z,1.00
2023-01-13T05:14:25.058Z,0.90
2023-01-13T05:17:00.610Z,0.70
2023-01-13T05:19:29.477Z,1.13
2023-01-13T05:22:14.658Z,0.80
2023-01-13T05:24:59.909Z,0.97
2023-01-13T05:27:26.902Z,0.93
2023-01-13T05:29:54.840Z,1.27
2023-01-13T05:32:22.199Z,0.90
2023-01-13T05:34:49.573Z,0.93
2023-01-13T05:37:16.852Z,1.10
2023-01-13T05:40:02.328Z,0.77
2023-01-13T05:42:47.628Z,0.70
2023-01-13T05:45:14.437Z,0.80
2023-01-13T05:47:41.174Z,0.90
2023-01-13T05:50:09.004Z,0.83
2023-01-13T05:52:36.032Z,0.90
2023-01-13T05:55:03.029Z,1.10
2023-01-13T05:57:29.913Z,1.00
2023-01-13T05:59:56.597Z,0.90
2023-01-13T06:02:23.309Z,0.90
2023-01-13T06:04:49.946Z,0.87
2023-01-13T06:07:19.318Z,1.17
2023-01-13T06:09:46.814Z,1.03
2023-01-13T06:12:14.391Z,0.80
2023-01-13T06:14:41.169Z,0.80
2023-01-13T06:17:13.620Z,0.73
2023-01-13T06:19:40.784Z,0.97
2023-01-13T06:22:31.132Z,0.77
2023-01-13T06:24:58.567Z,0.70
2023-01-13T06:27:25.603Z,1.00
2023-01-13T06:29:52.398Z,0.73
2023-01-13T06:32:24.171Z,0.77
2023-01-13T06:34:56.823Z,0.97
2023-01-13T06:37:26.268Z,1.00
2023-01-13T06:39:58.598Z,0.80
2023-01-13T06:42:49.769Z,1.17
2023-01-13T06:45:16.824Z,1.27
2023-01-13T06:47:44.155Z,1.17
2023-01-13T06:50:11.532Z,0.80
2023-01-13T06:52:38.428Z,1.00
2023-01-13T06:55:05.687Z,1.00
2023-01-13T06:57:33.658Z,0.80
2023-01-13T07:00:00.358Z,0.80
2023-01-13T07:02:28.348Z,0.70
2023-01-13T07:04:55.211Z,0.93
2023-01-13T07:07:21.896Z,1.10
2023-01-13T07:09:48.651Z,0.93
2023-01-13T07:12:15.297Z,1.27
2023-01-13T07:15:00.668Z,0.90
2023-01-13T07:17:27.316Z,0.83
2023-01-13T07:19:54.705Z,1.00
2023-01-13T07:22:21.566Z,1.20
2023-01-13T07:24:48.254Z,0.83
2023-01-13T07:27:14.991Z,1.00
2023-01-13T07:29:41.809Z,0.90
2023-01-13T07:32:08.639Z,0.70
2023-01-13T07:34:35.935Z,0.70
2023-01-13T07:37:02.623Z,1.07
2023-01-13T07:39:29.326Z,0.90
2023-01-13T07:42:14.606Z,1.27
2023-01-13T07:44:41.310Z,1.20
2023-01-13T07:47:10.522Z,1.03
2023-01-13T07:49:37.460Z,1.20
2023-01-13T07:52:04.267Z,0.83
2023-01-13T07:54:40.265Z,1.00
2023-01-13T07:57:09.025Z,1.00
2023-01-13T07:59:35.669Z,1.00
2023-01-13T08:02:02.650Z,1.33
2023-01-13T08:04:29.359Z,1.07
2023-01-13T08:06:56.006Z,1.10
2023-01-13T08:09:22.697Z,1.40
2023-01-13T08:12:09.451Z,0.90
2023-01-13T08:14:36.330Z,1.20
2023-01-13T08:17:02.914Z,0.90
2023-01-13T08:19:29.578Z,0.57
2023-01-13T08:21:57.238Z,1.07
2023-01-13T08:24:23.918Z,0.90
2023-01-13T08:26:50.549Z,0.90
2023-01-13T08:29:17.363Z,0.80
2023-01-13T08:31:44.239Z,1.07
2023-01-13T08:34:10.951Z,1.03
2023-01-13T08:36:37.588Z,0.80
2023-01-13T08:39:04.420Z,0.47
2023-01-13T08:41:49.787Z,0.90
2023-01-13T08:44:16.466Z,0.57
2023-01-13T08:46:43.127Z,0.90
2023-01-13T08:49:09.885Z,1.00
2023-01-13T08:51:36.615Z,0.57
2023-01-13T08:54:04.019Z,0.93
2023-01-13T08:56:34.155Z,0.97
2023-01-13T08:59:02.772Z,0.90
2023-01-13T09:01:29.620Z,0.80
2023-01-13T09:03:56.480Z,0.77
2023-01-13T09:06:23.262Z,0.70
2023-01-13T09:08:49.946Z,0.70
2023-01-13T09:11:44.444Z,0.50
2023-01-13T09:14:11.147Z,0.80
2023-01-13T09:16:37.798Z,0.73
2023-01-13T09:19:04.522Z,1.03
2023-01-13T09:21:31.147Z,1.10
2023-01-13T09:23:57.930Z,0.77
2023-01-13T09:26:24.668Z,0.80
2023-01-13T09:28:51.364Z,1.00
2023-01-13T09:31:18.139Z,1.00
2023-01-13T09:34:03.103Z,0.70
2023-01-13T09:36:29.783Z,0.63
2023-01-13T09:38:56.494Z,0.73
2023-01-13T09:41:44.369Z,0.73
2023-01-13T09:44:21.624Z,0.63
2023-01-13T09:46:53.411Z,0.90
2023-01-13T09:49:38.797Z,0.70
2023-01-13T09:52:19.497Z,0.60
2023-01-13T09:54:53.721Z,0.73
2023-01-13T09:57:21.372Z,0.90
2023-01-13T09:59:48.530Z,0.90
2023-01-13T10:02:32.533Z,0.80
2023-01-13T10:05:05.596Z,1.13
2023-01-13T10:07:37.099Z,0.83
2023-01-13T10:10:09.262Z,0.70
2023-01-13T10:12:54.754Z,0.77
2023-01-13T10:15:26.057Z,0.80
2023-01-13T10:18:01.257Z,1.10
2023-01-13T10:20:56.693Z,0.87
2023-01-13T10:23:52.439Z,0.90
2023-01-13T10:26:34.388Z,0.87
2023-01-13T10:29:01.049Z,0.93
2023-01-13T10:31:27.738Z,0.70
2023-01-13T10:34:04.254Z,0.87
2023-01-13T10:36:31.088Z,0.90
2023-01-13T10:39:09.039Z,0.80
2023-01-13T10:41:36.391Z,0.70
2023-01-13T10:44:17.161Z,1.00
2023-01-13T10:46:53.590Z,0.80
2023-01-13T10:49:33.687Z,0.77
2023-01-13T10:52:02.125Z,0.53
2023-01-13T10:54:29.405Z,0.77
2023-01-13T10:57:19.996Z,0.50
2023-01-13T10:59:47.494Z,0.40
2023-01-13T11:02:25.336Z,0.50
2023-01-13T11:04:53.045Z,0.60
2023-01-13T11:07:38.864Z,0.53
2023-01-13T11:10:28.036Z,0.70
2023-01-13T11:13:12.676Z,0.93
2023-01-13T11:15:57.711Z,0.60
2023-01-13T11:19:02.736Z,0.57
2023-01-13T11:21:36.869Z,0.70
2023-01-13T11:24:20.254Z,0.70
2023-01-13T11:27:13.386Z,0.60
2023-01-13T11:30:21.169Z,0.73
2023-01-13T11:33:09.959Z,0.50
2023-01-13T11:36:04.225Z,0.70
2023-01-13T11:38:38.521Z,0.97
2023-01-13T11:41:15.646Z,0.83
2023-01-13T11:44:06.530Z,0.93
2023-01-13T11:46:33.234Z,0.80
2023-01-13T11:49:01.090Z,1.20
2023-01-13T11:51:34.599Z,0.60
2023-01-13T11:54:40.135Z,0.50
2023-01-13T11:57:37.772Z,0.87
2023-01-13T12:00:33.552Z,0.60
2023-01-13T12:03:03.122Z,0.90
2023-01-13T12:05:44.698Z,0.60
2023-01-13T12:08:22.905Z,1.03
2023-01-13T12:11:00.237Z,0.60
2023-01-13T12:13:44.849Z,0.63
2023-01-13T12:16:17.452Z,0.67
2023-01-13T12:18:59.194Z,0.70
2023-01-13T12:21:40.305Z,0.80
2023-01-13T12:24:24.952Z,0.97
2023-01-13T12:26:58.755Z,0.60
2023-01-13T12:29:35.108Z,1.07
2023-01-13T12:32:06.083Z,0.70
2023-01-13T12:35:05.299Z,0.70
2023-01-13T12:37:44.985Z,0.53
2023-01-13T12:40:54.596Z,0.70
2023-01-13T12:43:43.360Z,0.60
2023-01-13T12:46:19.178Z,0.90
2023-01-13T12:48:46.876Z,0.90
2023-01-13T12:51:28.966Z,0.70
2023-01-13T12:53:56.552Z,0.80
2023-01-13T12:56:43.891Z,0.53
2023-01-13T12:59:16.517Z,1.20
2023-01-13T13:01:44.818Z,1.10
2023-01-13T13:04:14.054Z,0.67
2023-01-13T13:06:51.258Z,1.40
2023-01-13T13:09:20.678Z,0.80
2023-01-13T13:12:03.695Z,0.77
2023-01-13T13:14:39.177Z,0.83
2023-01-13T13:17:28.447Z,0.90
2023-01-13T13:19:57.596Z,0.80
2023-01-13T13:22:27.355Z,1.00
2023-01-13T13:24:57.702Z,0.80
2023-01-13T13:27:30.197Z,1.00
2023-01-13T13:30:00.625Z,1.20
2023-01-13T13:33:00.421Z,1.30
2023-01-13T13:36:05.249Z,0.90
2023-01-13T13:39:08.590Z,1.07
2023-01-13T13:41:55.545Z,0.87
2023-01-13T13:44:59.116Z,0.90
2023-01-13T13:47:26.067Z,0.60
2023-01-13T13:49:54.609Z,0.67
2023-01-13T13:52:30.281Z,0.63
2023-01-13T13:55:02.493Z,0.83
2023-01-13T13:57:39.834Z,0.83
2023-01-13T14:00:31.596Z,0.60
2023-01-13T14:03:20.985Z,1.10
2023-01-13T14:05:59.722Z,1.00
2023-01-13T14:08:33.631Z,1.10
2023-01-13T14:11:00.404Z,0.93
2023-01-13T14:13:31.806Z,0.93
2023-01-13T14:16:04.685Z,0.97
2023-01-13T14:18:35.461Z,0.73
2023-01-13T14:21:19.313Z,0.70
2023-01-13T14:24:20.738Z,1.27
2023-01-13T14:26:52.095Z,0.43
2023-01-13T14:29:24.321Z,0.80
2023-01-13T14:31:53.700Z,0.50
2023-01-13T14:34:31.874Z,0.80
2023-01-13T14:37:00.668Z,0.67
2023-01-13T14:39:40.459Z,0.77
2023-01-13T14:42:13.598Z,0.53
2023-01-13T14:44:46.107Z,0.90
2023-01-13T14:47:23.727Z,1.13
2023-01-13T14:50:00.477Z,0.83
2023-01-13T14:52:30.595Z,0.93
2023-01-13T14:55:06.876Z,0.60
2023-01-13T14:57:39.642Z,0.80
2023-01-13T15:00:15.433Z,0.83
2023-01-13T15:02:42.448Z,1.67
2023-01-13T15:05:24.273Z,0.70
2023-01-13T15:08:06.036Z,0.73
2023-01-13T15:10:38.255Z,0.60
2023-01-13T15:13:07.456Z,0.90
2023-01-13T15:15:37.581Z,1.10
2023-01-13T15:18:15.778Z,0.90
2023-01-13T15:20:43.385Z,0.97
2023-01-13T15:23:10.591Z,0.93
2023-01-13T15:25:42.049Z,0.90
2023-01-13T15:28:23.735Z,1.20
2023-01-13T15:30:52.288Z,1.30
2023-01-13T15:33:20.347Z,1.53
2023-01-13T15:35:50.014Z,1.37
2023-01-13T15:38:20.153Z,1.40
2023-01-13T15:40:48.174Z,0.90
2023-01-13T15:43:35.359Z,1.60
2023-01-13T15:46:22.643Z,1.40
2023-01-13T15:48:51.413Z,0.97
2023-01-13T15:51:21.508Z,0.93
2023-01-13T15:53:48.166Z,1.20
2023-01-13T15:56:21.864Z,1.60
2023-01-13T15:58:48.501Z,1.20
2023-01-13T16:01:15.212Z,1.27
2023-01-13T16:03:41.946Z,1.23
2023-01-13T16:06:20.136Z,1.20
2023-01-13T16:08:46.907Z,1.20
2023-01-13T16:11:14.095Z,1.00
2023-01-13T16:13:40.800Z,1.03
2023-01-13T16:16:27.980Z,1.00
2023-01-13T16:18:55.199Z,1.07
2023-01-13T16:21:22.259Z,1.10
2023-01-13T16:23:51.342Z,1.33
2023-01-13T16:26:24.812Z,1.13
2023-01-13T16:28:54.172Z,1.43
2023-01-13T16:31:32.216Z,1.40
2023-01-13T16:34:01.426Z,1.27
2023-01-13T16:36:29.951Z,1.60
2023-01-13T16:38:57.175Z,1.40
2023-01-13T16:41:25.107Z,1.60
2023-01-13T16:43:52.594Z,1.70
2023-01-13T16:46:28.109Z,1.80
2023-01-13T16:48:57.240Z,1.50
2023-01-13T16:51:24.712Z,1.30
2023-01-13T16:53:51.787Z,1.50
2023-01-13T16:56:25.427Z,1.37
2023-01-13T16:58:54.019Z,1.10
2023-01-13T17:01:20.724Z,2.53
2023-01-13T17:03:49.324Z,1.60
2023-01-13T17:06:24.001Z,1.57
2023-01-13T17:08:50.760Z,1.70
2023-01-13T17:11:17.479Z,1.37
2023-01-13T17:13:44.259Z,1.30
2023-01-13T17:16:20.576Z,1.20
2023-01-13T17:18:48.248Z,2.03
2023-01-13T17:21:15.812Z,1.57
2023-01-13T17:23:43.260Z,1.57
2023-01-13T17:26:49.836Z,1.40
2023-01-13T17:29:19.019Z,1.30
2023-01-13T17:31:45.754Z,1.20
2023-01-13T17:34:13.304Z,1.20
2023-01-13T17:36:40.560Z,1.20
2023-01-13T17:39:07.232Z,1.80
2023-01-13T17:41:33.957Z,1.37
2023-01-13T17:44:00.569Z,1.60
2023-01-13T17:46:27.225Z,1.23
2023-01-13T17:48:54.673Z,1.27
2023-01-13T17:51:22.741Z,1.20
2023-01-13T17:53:49.656Z,2.13
2023-01-13T17:56:17.213Z,1.20
2023-01-13T17:58:45.556Z,1.70
2023-01-13T18:01:17.791Z,1.37
2023-01-13T18:03:45.576Z,2.00
2023-01-13T18:06:18.504Z,1.27
2023-01-13T18:08:46.055Z,1.30
2023-01-13T18:11:14.404Z,1.40
2023-01-13T18:13:43.144Z,1.97
2023-01-13T18:16:12.058Z,1.40
2023-01-13T18:18:41.084Z,1.73
2023-01-13T18:21:32.335Z,1.80
2023-01-13T18:24:17.840Z,1.97
2023-01-13T18:27:02.995Z,2.03
2023-01-13T18:29:29.714Z,2.03
2023-01-13T18:31:56.357Z,2.40
2023-01-13T18:34:23.187Z,2.90
2023-01-13T18:36:49.831Z,2.37
2023-01-13T18:39:18.128Z,2.20
2023-01-13T18:42:03.595Z,1.90
2023-01-13T18:44:30.324Z,1.40
2023-01-13T18:46:57.139Z,1.60
2023-01-13T18:49:23.930Z,1.20
2023-01-13T18:51:50.743Z,1.57
2023-01-13T18:54:17.621Z,1.37
2023-01-13T18:56:44.516Z,1.67
2023-01-13T18:59:11.349Z,1.33
2023-01-13T19:01:38.341Z,1.77
2023-01-13T19:04:11.525Z,1.33
2023-01-13T19:06:40.315Z,1.20
2023-01-13T19:09:11.197Z,1.40
2023-01-13T19:11:37.958Z,1.47
2023-01-13T19:14:04.734Z,1.27
2023-01-13T19:16:31.366Z,1.50
2023-01-13T19:18:58.192Z,1.73
2023-01-13T19:21:25.485Z,1.20
2023-01-13T19:23:58.389Z,1.50
2023-01-13T19:26:25.093Z,1.67
2023-01-13T19:28:51.870Z,1.70
2023-01-13T19:31:20.626Z,1.67
2023-01-13T19:33:47.363Z,1.60
2023-01-13T19:36:14.095Z,1.60
2023-01-13T19:38:40.780Z,1.60
2023-01-13T19:41:28.057Z,1.20
2023-01-13T19:44:14.836Z,1.40
2023-01-13T19:46:41.645Z,1.60
2023-01-13T19:49:08.449Z,1.10
2023-01-13T19:51:35.157Z,1.43
2023-01-13T19:54:02.062Z,1.40
2023-01-13T19:56:29.580Z,1.20
2023-01-13T19:58:56.858Z,1.20
2023-01-13T20:01:30.365Z,1.40
2023-01-13T20:04:03.296Z,1.33
2023-01-13T20:06:31.549Z,1.33
2023-01-13T20:08:59.228Z,1.67
2023-01-13T20:11:31.473Z,1.00
2023-01-13T20:13:59.863Z,1.70
2023-01-13T20:16:28.429Z,0.80
2023-01-13T20:18:55.826Z,1.20
2023-01-13T20:21:23.370Z,1.40
2023-01-13T20:23:51.276Z,1.00
2023-01-13T20:26:18.928Z,1.40
2023-01-13T20:28:47.110Z,1.30
2023-01-13T20:31:15.053Z,1.37
2023-01-13T20:33:43.302Z,0.90
2023-01-13T20:36:25.979Z,1.13
2023-01-13T20:38:57.163Z,1.10
2023-01-13T20:41:59.225Z,0.80
2023-01-13T20:44:25.918Z,1.00
2023-01-13T20:46:54.658Z,1.73
2023-01-13T20:49:27.949Z,0.97
2023-01-13T20:51:55.305Z,0.90
2023-01-13T20:54:22.198Z,1.30
2023-01-13T20:56:49.193Z,1.27
2023-01-13T20:59:16.290Z,0.87
2023-01-13T21:01:43.276Z,1.30
2023-01-13T21:04:10.148Z,1.60
2023-01-13T21:06:37.150Z,1.20
2023-01-13T21:09:04.020Z,1.00
2023-01-13T21:11:49.493Z,1.13
2023-01-13T21:14:38.332Z,0.97
2023-01-13T21:17:06.067Z,1.00
2023-01-13T21:19:33.010Z,0.90
2023-01-13T21:21:59.770Z,1.30
2023-01-13T21:24:26.890Z,1.20
2023-01-13T21:26:59.744Z,1.33
2023-01-13T21:29:26.413Z,1.10
2023-01-13T21:31:54.506Z,1.17
2023-01-13T21:34:21.401Z,1.23
2023-01-13T21:36:48.199Z,1.33
2023-01-13T21:39:16.138Z,0.80
2023-01-13T21:42:01.609Z,1.00
2023-01-13T21:44:47.071Z,1.03
2023-01-13T21:47:38.969Z,1.07
2023-01-13T21:50:13.624Z,1.47
2023-01-13T21:52:42.815Z,1.47
2023-01-13T21:55:28.504Z,2.10
2023-01-13T21:57:58.201Z,1.13
2023-01-13T22:00:27.559Z,1.23
2023-01-13T22:02:55.168Z,1.40
2023-01-13T22:05:24.325Z,1.00
2023-01-13T22:07:54.127Z,1.20
2023-01-13T22:10:23.031Z,1.13
2023-01-13T22:12:54.386Z,1.40
2023-01-13T22:15:22.393Z,1.60
2023-01-13T22:17:53.457Z,0.90
2023-01-13T22:20:21.501Z,1.33
2023-01-13T22:22:48.512Z,1.50
2023-01-13T22:25:16.769Z,1.43
2023-01-13T22:27:44.837Z,1.40
2023-01-13T22:30:18.442Z,1.20
2023-01-13T22:32:46.075Z,1.13
2023-01-13T22:35:14.801Z,1.40
2023-01-13T22:37:42.200Z,1.20
2023-01-13T22:40:11.546Z,1.30
2023-01-13T22:42:40.087Z,1.10
2023-01-13T22:45:09.955Z,1.37
2023-01-13T22:47:36.947Z,1.20
2023-01-13T22:50:04.431Z,1.33
2023-01-13T22:52:31.128Z,0.80
2023-01-13T22:54:58.659Z,1.10
2023-01-13T22:57:25.385Z,1.60
2023-01-13T22:59:52.085Z,1.33
2023-01-13T23:02:18.729Z,1.33
2023-01-13T23:04:45.453Z,1.03
2023-01-13T23:07:12.167Z,1.40
2023-01-13T23:09:38.836Z,0.90
2023-01-13T23:12:05.872Z,1.13
2023-01-13T23:14:32.774Z,1.70
2023-01-13T23:16:59.530Z,1.30
2023-01-13T23:19:26.204Z,1.20
2023-01-13T23:21:52.927Z,1.17
2023-01-13T23:24:20.800Z,1.50
2023-01-13T23:26:47.540Z,1.23
2023-01-13T23:29:14.349Z,1.30
2023-01-13T23:31:41.255Z,1.03
2023-01-13T23:34:08.159Z,1.53
2023-01-13T23:36:42.120Z,0.83
2023-01-13T23:39:09.131Z,1.30
2023-01-13T23:41:35.834Z,1.13
2023-01-13T23:44:02.572Z,1.30
2023-01-13T23:46:30.820Z,1.40
2023-01-13T23:48:57.631Z,1.03
2023-01-13T23:51:26.212Z,1.17
2023-01-13T23:53:53.991Z,1.23
2023-01-13T23:56:26.681Z,1.17
2023-01-13T23:58:53.950Z,1.70
